createdAt,value
2022-12-13T00:01:59.782Z,8.10
2022-12-13T00:04:28.406Z,8.10
2022-12-13T00:06:56.991Z,8.20
2022-12-13T00:09:25.614Z,8.20
2022-12-13T00:11:55.522Z,8.20
2022-12-13T00:14:23.987Z,8.50
2022-12-13T00:16:52.519Z,8.20
2022-12-13T00:19:21.483Z,8.20
2022-12-13T00:21:49.932Z,8.20
2022-12-13T00:24:18.392Z,8.20
2022-12-13T00:26:46.842Z,8.30
2022-12-13T00:29:15.786Z,8.30
2022-12-13T00:32:01.061Z,8.30
2022-12-13T00:34:30.879Z,8.20
2022-12-13T00:37:02.145Z,8.20
2022-12-13T00:39:30.933Z,8.20
2022-12-13T00:41:59.608Z,8.20
2022-12-13T00:44:28.384Z,8.10
2022-12-13T00:46:57.340Z,8.10
2022-12-13T00:49:25.876Z,8.00
2022-12-13T00:51:54.530Z,8.10
2022-12-13T00:54:23.305Z,8.10
2022-12-13T00:56:52.372Z,8.10
2022-12-13T00:59:20.981Z,8.10
2022-12-13T01:01:49.596Z,8.10
2022-12-13T01:04:18.112Z,8.00
2022-12-13T01:06:50.678Z,7.80
2022-12-13T01:09:22.554Z,7.80
2022-12-13T01:11:51.880Z,7.90
2022-12-13T01:14:20.720Z,7.80
2022-12-13T01:16:49.325Z,8.00
2022-12-13T01:19:19.129Z,7.80
2022-12-13T01:21:47.561Z,7.60
2022-12-13T01:24:16.690Z,7.80
2022-12-13T01:26:45.128Z,7.60
2022-12-13T01:29:13.589Z,7.70
2022-12-13T01:31:42.532Z,7.70
2022-12-13T01:34:12.939Z,7.80
2022-12-13T01:36:42.837Z,8.00
2022-12-13T01:39:15.134Z,7.80
2022-12-13T01:41:46.246Z,7.80
2022-12-13T01:44:51.716Z,7.80
2022-12-13T01:47:45.097Z,7.70
2022-12-13T01:50:27.649Z,7.70
2022-12-13T01:52:57.319Z,7.60
2022-12-13T01:55:33.096Z,7.60
2022-12-13T01:58:03.235Z,7.80
2022-12-13T02:00:31.724Z,7.70
2022-12-13T02:03:01.284Z,7.50
2022-12-13T02:05:42.760Z,7.60
2022-12-13T02:08:14.721Z,7.60
2022-12-13T02:10:44.831Z,7.50
2022-12-13T02:13:13.659Z,7.50
2022-12-13T02:16:12.249Z,7.30
2022-12-13T02:18:57.452Z,7.50
2022-12-13T02:21:54.599Z,7.50
2022-12-13T02:24:41.587Z,7.60
2022-12-13T02:27:30.744Z,7.50
2022-12-13T02:30:18.164Z,7.50
2022-12-13T02:32:59.013Z,7.30
2022-12-13T02:35:33.721Z,7.30
2022-12-13T02:38:28.377Z,7.20
2022-12-13T02:41:12.987Z,7.20
2022-12-13T02:44:21.696Z,7.20
2022-12-13T02:47:12.544Z,7.20
2022-12-13T02:49:45.060Z,7.30
2022-12-13T02:52:22.324Z,7.40
2022-12-13T02:54:51.183Z,7.30
2022-12-13T02:57:49.522Z,7.30
2022-12-13T03:00:25.916Z,7.30
2022-12-13T03:03:13.053Z,7.40
2022-12-13T03:06:23.985Z,7.30
2022-12-13T03:09:09.053Z,7.20
2022-12-13T03:12:11.087Z,7.40
2022-12-13T03:14:47.821Z,7.40
2022-12-13T03:17:19.163Z,7.50
2022-12-13T03:19:47.547Z,7.30
2022-12-13T03:22:17.929Z,7.30
2022-12-13T03:24:46.592Z,7.20
2022-12-13T03:27:15.162Z,7.20
2022-12-13T03:29:43.641Z,7.20
2022-12-13T03:32:12.062Z,7.20
2022-12-13T03:34:44.068Z,7.20
2022-12-13T03:37:14.645Z,7.20
2022-12-13T03:39:43.080Z,7.10
2022-12-13T03:42:11.591Z,7.40
2022-12-13T03:44:40.979Z,7.10
2022-12-13T03:47:09.532Z,7.00
2022-12-13T03:49:37.899Z,7.00
2022-12-13T03:52:06.400Z,6.90
2022-12-13T03:54:34.821Z,6.90
2022-12-13T03:57:03.320Z,6.90
2022-12-13T03:59:31.749Z,6.80
2022-12-13T04:02:00.242Z,6.90
2022-12-13T04:04:28.708Z,6.70
2022-12-13T04:06:57.092Z,6.80
2022-12-13T04:09:25.601Z,6.80
2022-12-13T04:12:12.372Z,6.80
2022-12-13T04:14:40.793Z,6.80
2022-12-13T04:17:09.398Z,6.90
2022-12-13T04:19:37.923Z,6.80
2022-12-13T04:22:06.310Z,6.90
2022-12-13T04:24:34.783Z,6.90
2022-12-13T04:27:03.356Z,6.70
2022-12-13T04:29:34.119Z,6.70
2022-12-13T04:32:26.732Z,6.50
2022-12-13T04:35:12.721Z,6.60
2022-12-13T04:37:43.326Z,6.60
2022-12-13T04:40:12.672Z,6.40
2022-12-13T04:42:41.306Z,6.50
2022-12-13T04:45:11.267Z,6.50
2022-12-13T04:47:39.672Z,6.40
2022-12-13T04:50:11.296Z,6.30
2022-12-13T04:52:40.636Z,6.30
2022-12-13T04:55:09.849Z,6.30
2022-12-13T04:57:38.323Z,6.20
2022-12-13T05:00:09.290Z,6.20
2022-12-13T05:02:38.002Z,6.40
2022-12-13T05:05:06.895Z,6.20
2022-12-13T05:07:35.340Z,6.30
2022-12-13T05:10:11.884Z,6.20
2022-12-13T05:12:40.670Z,6.30
2022-12-13T05:15:09.668Z,6.10
2022-12-13T05:17:38.138Z,6.30
2022-12-13T05:20:07.015Z,6.20
2022-12-13T05:22:38.888Z,6.10
2022-12-13T05:25:08.508Z,6.10
2022-12-13T05:27:36.886Z,6.00
2022-12-13T05:30:05.645Z,6.10
2022-12-13T05:32:43.197Z,6.00
2022-12-13T05:35:23.261Z,6.00
2022-12-13T05:37:55.599Z,6.10
2022-12-13T05:40:25.434Z,6.00
2022-12-13T05:43:00.991Z,5.80
2022-12-13T05:45:33.854Z,5.80
2022-12-13T05:48:02.696Z,5.80
2022-12-13T05:50:31.144Z,5.40
2022-12-13T05:52:59.649Z,5.60
2022-12-13T05:55:28.057Z,5.50
2022-12-13T05:58:02.379Z,5.30
2022-12-13T06:00:31.515Z,5.20
2022-12-13T06:03:01.580Z,5.30
2022-12-13T06:05:31.716Z,5.00
2022-12-13T06:08:00.291Z,4.80
2022-12-13T06:10:34.293Z,5.10
2022-12-13T06:13:21.417Z,4.80
2022-12-13T06:16:01.455Z,5.00
2022-12-13T06:18:35.491Z,4.60
2022-12-13T06:21:07.877Z,4.50
2022-12-13T06:23:37.233Z,4.40
2022-12-13T06:26:07.130Z,4.50
2022-12-13T06:28:35.641Z,4.20
2022-12-13T06:31:05.807Z,4.10
2022-12-13T06:33:37.664Z,4.40
2022-12-13T06:36:06.449Z,4.20
2022-12-13T06:38:35.176Z,4.30
2022-12-13T06:41:17.765Z,4.30
2022-12-13T06:43:47.697Z,4.00
2022-12-13T06:46:17.108Z,3.80
2022-12-13T06:48:46.277Z,3.80
2022-12-13T06:51:22.584Z,3.80
2022-12-13T06:53:51.784Z,3.60
2022-12-13T06:56:20.316Z,3.50
2022-12-13T06:58:48.887Z,3.60
2022-12-13T07:01:24.009Z,3.30
2022-12-13T07:03:56.065Z,3.30
2022-12-13T07:06:26.131Z,3.30
2022-12-13T07:08:58.926Z,3.00
2022-12-13T07:11:32.635Z,3.30
2022-12-13T07:14:01.695Z,3.10
2022-12-13T07:16:30.516Z,3.00
2022-12-13T07:19:01.553Z,2.70
2022-12-13T07:21:31.073Z,2.70
2022-12-13T07:23:59.965Z,3.00
2022-12-13T07:26:28.404Z,2.90
2022-12-13T07:28:57.259Z,2.70
2022-12-13T07:31:35.756Z,2.60
2022-12-13T07:34:04.216Z,2.80
2022-12-13T07:36:32.706Z,2.50
2022-12-13T07:39:01.134Z,2.50
2022-12-13T07:41:29.659Z,2.70
2022-12-13T07:43:58.297Z,2.50
2022-12-13T07:46:33.225Z,2.70
2022-12-13T07:49:06.708Z,2.70
2022-12-13T07:51:36.228Z,2.40
2022-12-13T07:54:06.819Z,2.50
2022-12-13T07:56:37.012Z,2.60
2022-12-13T07:59:05.483Z,2.60
2022-12-13T08:01:38.060Z,2.50
2022-12-13T08:04:06.796Z,2.70
2022-12-13T08:06:39.348Z,2.60
2022-12-13T08:09:07.838Z,2.50
2022-12-13T08:11:36.265Z,2.40
2022-12-13T08:14:04.829Z,2.40
2022-12-13T08:16:33.676Z,2.50
2022-12-13T08:19:04.661Z,2.50
2022-12-13T08:21:58.231Z,2.60
2022-12-13T08:24:28.787Z,2.50
2022-12-13T08:27:04.648Z,2.70
2022-12-13T08:29:36.128Z,2.50
2022-12-13T08:32:10.240Z,2.50
2022-12-13T08:34:39.281Z,2.50
2022-12-13T08:37:07.759Z,2.50
2022-12-13T08:39:38.405Z,2.40
2022-12-13T08:42:20.112Z,2.50
2022-12-13T08:44:51.366Z,2.50
2022-12-13T08:47:24.177Z,2.40
2022-12-13T08:50:02.137Z,2.40
2022-12-13T08:52:40.490Z,2.50
2022-12-13T08:55:15.105Z,2.30
2022-12-13T08:57:45.075Z,2.30
2022-12-13T09:00:17.298Z,2.20
2022-12-13T09:02:45.824Z,1.90
2022-12-13T09:05:32.317Z,2.00
2022-12-13T09:08:24.643Z,1.70
2022-12-13T09:11:10.594Z,1.60
2022-12-13T09:13:49.442Z,1.70
2022-12-13T09:16:24.733Z,1.80
2022-12-13T09:18:56.487Z,1.60
2022-12-13T09:21:31.304Z,1.50
2022-12-13T09:24:02.296Z,1.40
2022-12-13T09:26:38.123Z,1.60
2022-12-13T09:29:10.807Z,1.50
2022-12-13T09:31:41.332Z,1.40
2022-12-13T09:34:11.186Z,1.50
2022-12-13T09:36:39.866Z,1.40
2022-12-13T09:39:08.309Z,1.30
2022-12-13T09:41:52.058Z,1.30
2022-12-13T09:44:45.334Z,1.10
2022-12-13T09:47:47.151Z,1.30
2022-12-13T09:50:42.462Z,1.20
2022-12-13T09:53:33.679Z,1.20
2022-12-13T09:56:10.131Z,1.30
2022-12-13T09:58:40.209Z,1.20
2022-12-13T10:01:08.776Z,1.30
2022-12-13T10:03:37.256Z,1.30
2022-12-13T10:06:23.459Z,1.30
2022-12-13T10:08:57.686Z,1.30
2022-12-13T10:11:32.160Z,1.00
2022-12-13T10:14:28.740Z,1.00
2022-12-13T10:17:01.491Z,0.90
2022-12-13T10:19:44.091Z,1.10
2022-12-13T10:22:17.716Z,0.80
2022-12-13T10:25:06.918Z,1.00
2022-12-13T10:27:45.917Z,0.90
2022-12-13T10:30:28.742Z,1.00
2022-12-13T10:33:03.502Z,1.00
2022-12-13T10:35:35.284Z,1.10
2022-12-13T10:38:31.892Z,0.90
2022-12-13T10:41:01.217Z,0.90
2022-12-13T10:43:33.703Z,1.00
2022-12-13T10:46:04.252Z,0.80
2022-12-13T10:48:53.113Z,1.10
2022-12-13T10:51:23.728Z,1.00
2022-12-13T10:54:01.460Z,0.80
2022-12-13T10:56:47.583Z,1.10
2022-12-13T10:59:32.124Z,0.80
2022-12-13T11:02:02.615Z,0.80
2022-12-13T11:04:33.977Z,0.80
2022-12-13T11:07:25.565Z,0.80
2022-12-13T11:09:54.172Z,0.70
2022-12-13T11:12:25.794Z,0.70
2022-12-13T11:15:07.098Z,0.70
2022-12-13T11:17:52.508Z,0.70
2022-12-13T11:20:34.110Z,0.60
2022-12-13T11:23:16.634Z,0.60
2022-12-13T11:25:47.236Z,0.60
2022-12-13T11:28:26.812Z,0.50
2022-12-13T11:31:20.268Z,0.60
2022-12-13T11:34:22.464Z,0.50
2022-12-13T11:36:58.418Z,0.70
2022-12-13T11:39:38.958Z,0.50
2022-12-13T11:42:25.904Z,0.50
2022-12-13T11:45:23.689Z,0.50
2022-12-13T11:48:10.390Z,0.40
2022-12-13T11:50:50.573Z,0.60
2022-12-13T11:53:31.468Z,0.20
2022-12-13T11:56:29.364Z,0.50
2022-12-13T11:59:11.280Z,0.00
2022-12-13T12:01:54.857Z,0.40
2022-12-13T12:04:41.709Z,0.20
2022-12-13T12:07:32.978Z,0.30
2022-12-13T12:10:20.399Z,0.50
2022-12-13T12:12:54.506Z,0.30
2022-12-13T12:15:31.068Z,0.20
2022-12-13T12:17:59.760Z,0.40
2022-12-13T12:21:07.116Z,0.60
2022-12-13T12:23:52.483Z,0.30
2022-12-13T12:26:58.836Z,0.70
2022-12-13T12:29:54.805Z,0.70
2022-12-13T12:32:33.047Z,1.10
2022-12-13T12:35:32.641Z,1.30
2022-12-13T12:38:01.037Z,1.30
2022-12-13T12:41:15.693Z,1.20
2022-12-13T12:43:44.405Z,1.50
2022-12-13T12:46:15.728Z,1.30
2022-12-13T12:49:01.140Z,1.80
2022-12-13T12:51:42.707Z,1.70
2022-12-13T12:54:27.457Z,1.80
2022-12-13T12:57:08.318Z,1.70
2022-12-13T13:00:01.651Z,1.80
2022-12-13T13:02:38.697Z,2.00
2022-12-13T13:05:23.849Z,2.00
2022-12-13T13:08:00.497Z,2.20
2022-12-13T13:10:29.627Z,2.20
2022-12-13T13:13:11.909Z,2.20
2022-12-13T13:15:41.538Z,2.60
2022-12-13T13:18:49.093Z,2.30
2022-12-13T13:21:33.736Z,2.30
2022-12-13T13:24:11.038Z,2.50
2022-12-13T13:26:51.616Z,2.50
2022-12-13T13:29:28.445Z,2.70
2022-12-13T13:32:08.490Z,2.80
2022-12-13T13:34:39.808Z,2.90
2022-12-13T13:37:23.441Z,2.80
2022-12-13T13:39:57.741Z,2.60
2022-12-13T13:42:28.383Z,2.40
2022-12-13T13:45:04.185Z,2.80
2022-12-13T13:47:39.863Z,2.50
2022-12-13T13:50:13.786Z,2.50
2022-12-13T13:53:20.224Z,2.50
2022-12-13T13:56:07.130Z,2.50
2022-12-13T13:58:54.088Z,2.50
2022-12-13T14:01:23.658Z,2.30
2022-12-13T14:04:29.859Z,2.50
2022-12-13T14:07:35.476Z,2.40
2022-12-13T14:10:19.172Z,2.50
2022-12-13T14:12:53.658Z,2.50
2022-12-13T14:15:49.645Z,2.70
2022-12-13T14:18:52.342Z,2.40
2022-12-13T14:21:39.752Z,2.50
2022-12-13T14:24:18.303Z,2.40
2022-12-13T14:26:52.663Z,2.50
2022-12-13T14:29:38.700Z,2.70
2022-12-13T14:32:37.674Z,2.90
2022-12-13T14:35:25.413Z,2.70
2022-12-13T14:38:06.489Z,2.70
2022-12-13T14:40:49.325Z,2.70
2022-12-13T14:43:29.903Z,3.00
2022-12-13T14:46:06.204Z,3.10
2022-12-13T14:48:38.367Z,3.00
2022-12-13T14:51:07.023Z,2.90
2022-12-13T14:53:44.414Z,3.00
2022-12-13T14:56:28.711Z,2.90
2022-12-13T14:59:19.057Z,2.80
2022-12-13T15:01:56.684Z,2.90
2022-12-13T15:04:32.725Z,2.80
2022-12-13T15:07:04.413Z,2.70
2022-12-13T15:09:37.321Z,2.70
2022-12-13T15:12:24.749Z,2.40
2022-12-13T15:15:03.837Z,2.60
2022-12-13T15:17:41.032Z,2.70
2022-12-13T15:20:28.367Z,2.70
2022-12-13T15:23:11.895Z,2.30
2022-12-13T15:25:40.918Z,2.70
2022-12-13T15:28:18.106Z,2.70
2022-12-13T15:30:50.672Z,2.70
2022-12-13T15:33:26.350Z,2.70
2022-12-13T15:36:23.943Z,2.70
2022-12-13T15:38:58.413Z,2.80
2022-12-13T15:41:37.645Z,2.80
2022-12-13T15:44:16.481Z,2.80
2022-12-13T15:46:47.952Z,2.80
2022-12-13T15:49:33.496Z,2.50
2022-12-13T15:52:05.619Z,2.90
2022-12-13T15:54:35.181Z,2.70
2022-12-13T15:57:23.727Z,2.40
2022-12-13T16:00:31.085Z,2.50
2022-12-13T16:03:09.479Z,2.60
2022-12-13T16:05:43.328Z,2.50
2022-12-13T16:08:27.411Z,2.40
2022-12-13T16:10:56.208Z,2.40
2022-12-13T16:13:34.211Z,2.70
2022-12-13T16:16:33.393Z,2.90
2022-12-13T16:19:02.686Z,2.90
2022-12-13T16:21:31.131Z,2.90
2022-12-13T16:23:59.493Z,2.80
2022-12-13T16:26:30.214Z,2.80
2022-12-13T16:29:00.519Z,2.60
2022-12-13T16:31:36.290Z,2.80
2022-12-13T16:34:06.108Z,2.40
2022-12-13T16:36:35.023Z,2.70
2022-12-13T16:39:04.152Z,3.00
2022-12-13T16:41:36.535Z,3.10
2022-12-13T16:44:07.517Z,3.10
2022-12-13T16:47:13.758Z,3.10
2022-12-13T16:49:30.131Z,3.20
2022-12-13T16:51:58.892Z,3.20
2022-12-13T16:54:27.861Z,3.20
2022-12-13T16:56:56.362Z,3.00
2022-12-13T16:59:26.852Z,3.00
2022-12-13T17:01:55.890Z,3.20
2022-12-13T17:04:25.467Z,3.00
2022-12-13T17:06:55.090Z,3.10
2022-12-13T17:09:25.466Z,2.90
2022-12-13T17:11:53.928Z,3.10
2022-12-13T17:14:22.327Z,3.00
2022-12-13T17:16:50.828Z,3.20
2022-12-13T17:19:19.223Z,3.00
2022-12-13T17:21:47.635Z,3.10
2022-12-13T17:24:16.319Z,3.20
2022-12-13T17:26:54.605Z,3.30
2022-12-13T17:29:25.703Z,3.30
2022-12-13T17:31:54.332Z,3.40
2022-12-13T17:34:23.022Z,3.60
2022-12-13T17:36:51.503Z,3.90
2022-12-13T17:39:19.956Z,3.60
2022-12-13T17:41:54.756Z,3.70
2022-12-13T17:44:25.548Z,3.80
2022-12-13T17:46:55.769Z,3.10
2022-12-13T17:49:25.556Z,3.30
2022-12-13T17:51:55.220Z,3.50
2022-12-13T17:54:25.031Z,3.70
2022-12-13T17:56:54.279Z,3.90
2022-12-13T17:59:23.163Z,3.90
2022-12-13T18:01:52.290Z,3.60
2022-12-13T18:04:21.776Z,3.60
2022-12-13T18:06:53.088Z,3.80
2022-12-13T18:09:21.556Z,4.10
2022-12-13T18:11:50.001Z,4.10
2022-12-13T18:14:18.444Z,3.90
2022-12-13T18:16:47.592Z,4.20
2022-12-13T18:19:16.329Z,4.40
2022-12-13T18:21:44.715Z,4.40
2022-12-13T18:24:13.362Z,4.00
2022-12-13T18:26:41.812Z,4.20
2022-12-13T18:29:10.589Z,4.10
2022-12-13T18:31:39.079Z,4.10
2022-12-13T18:34:07.937Z,3.90
2022-12-13T18:36:36.966Z,4.00
2022-12-13T18:39:05.623Z,3.90
2022-12-13T18:41:34.799Z,3.60
2022-12-13T18:44:05.474Z,3.60
2022-12-13T18:46:36.029Z,3.60
2022-12-13T18:49:05.544Z,4.10
2022-12-13T18:51:34.751Z,3.50
2022-12-13T18:54:03.206Z,3.60
2022-12-13T18:56:31.818Z,3.40
2022-12-13T18:59:00.485Z,3.40
2022-12-13T19:01:29.429Z,3.70
2022-12-13T19:03:58.114Z,3.80
2022-12-13T19:06:28.778Z,3.80
2022-12-13T19:08:59.071Z,4.00
2022-12-13T19:11:29.084Z,4.10
2022-12-13T19:13:58.044Z,4.10
2022-12-13T19:16:27.537Z,4.10
2022-12-13T19:18:56.072Z,4.10
2022-12-13T19:21:25.194Z,4.20
2022-12-13T19:23:57.476Z,4.20
2022-12-13T19:26:28.979Z,4.40
2022-12-13T19:28:59.263Z,4.30
2022-12-13T19:31:31.871Z,4.30
2022-12-13T19:34:03.079Z,4.40
2022-12-13T19:36:34.194Z,4.50
2022-12-13T19:39:02.725Z,4.80
2022-12-13T19:41:33.036Z,4.50
2022-12-13T19:44:05.266Z,4.70
2022-12-13T19:46:34.266Z,4.40
2022-12-13T19:49:02.898Z,5.00
2022-12-13T19:51:37.494Z,4.90
2022-12-13T19:54:08.140Z,4.80
2022-12-13T19:56:36.517Z,4.70
2022-12-13T19:59:04.982Z,4.80
2022-12-13T20:01:33.670Z,4.60
2022-12-13T20:04:02.588Z,5.10
2022-12-13T20:06:31.400Z,5.00
2022-12-13T20:08:59.896Z,4.90
2022-12-13T20:11:28.257Z,5.40
2022-12-13T20:13:56.923Z,5.00
2022-12-13T20:16:27.690Z,5.00
2022-12-13T20:18:58.991Z,5.10
2022-12-13T20:21:28.564Z,5.00
2022-12-13T20:23:58.506Z,4.70
2022-12-13T20:26:29.409Z,5.00
2022-12-13T20:28:58.159Z,4.80
2022-12-13T20:31:32.239Z,5.10
2022-12-13T20:34:03.233Z,5.20
2022-12-13T20:36:32.549Z,5.60
2022-12-13T20:39:02.696Z,5.60
2022-12-13T20:41:33.979Z,5.50
2022-12-13T20:44:04.094Z,4.90
2022-12-13T20:46:32.883Z,5.20
2022-12-13T20:49:04.312Z,5.30
2022-12-13T20:51:34.153Z,5.20
2022-12-13T20:54:02.670Z,5.30
2022-12-13T20:56:35.860Z,5.40
2022-12-13T20:59:12.367Z,5.70
2022-12-13T21:01:42.084Z,5.80
2022-12-13T21:04:12.381Z,5.00
2022-12-13T21:06:42.637Z,4.50
2022-12-13T21:09:12.540Z,4.20
2022-12-13T21:11:46.229Z,4.40
2022-12-13T21:14:22.173Z,5.00
2022-12-13T21:16:53.638Z,4.90
2022-12-13T21:19:24.985Z,4.90
2022-12-13T21:21:55.105Z,4.80
2022-12-13T21:24:25.511Z,5.30
2022-12-13T21:26:57.176Z,5.10
2022-12-13T21:29:25.986Z,5.40
2022-12-13T21:31:55.437Z,5.00
2022-12-13T21:34:24.235Z,4.60
2022-12-13T21:36:54.137Z,4.90
2022-12-13T21:39:30.545Z,5.10
2022-12-13T21:41:59.313Z,5.20
2022-12-13T21:44:28.011Z,5.30
2022-12-13T21:47:12.949Z,5.20
2022-12-13T21:49:41.862Z,5.50
2022-12-13T21:52:10.340Z,5.40
2022-12-13T21:54:38.732Z,5.30
2022-12-13T21:57:25.603Z,4.70
2022-12-13T21:59:53.984Z,4.60
2022-12-13T22:02:22.439Z,5.00
2022-12-13T22:04:50.904Z,5.10
2022-12-13T22:07:28.171Z,4.80
2022-12-13T22:09:58.052Z,5.30
2022-12-13T22:12:42.693Z,5.40
2022-12-13T22:15:13.703Z,5.10
2022-12-13T22:17:43.750Z,4.70
2022-12-13T22:20:14.838Z,4.70
2022-12-13T22:22:44.917Z,5.30
2022-12-13T22:25:13.389Z,5.60
2022-12-13T22:27:41.828Z,5.90
2022-12-13T22:30:11.300Z,5.50
2022-12-13T22:32:39.688Z,5.70
2022-12-13T22:35:08.699Z,5.80
2022-12-13T22:37:37.077Z,5.80
2022-12-13T22:40:06.568Z,5.80
2022-12-13T22:42:34.972Z,5.60
2022-12-13T22:45:03.373Z,5.80
2022-12-13T22:47:31.759Z,5.80
2022-12-13T22:50:00.364Z,5.90
2022-12-13T22:52:33.618Z,5.50
2022-12-13T22:55:02.478Z,6.00
2022-12-13T22:57:30.861Z,5.80
2022-12-13T22:59:59.233Z,6.00
2022-12-13T23:02:27.724Z,5.80
2022-12-13T23:04:56.134Z,5.70
2022-12-13T23:07:24.509Z,5.70
2022-12-13T23:09:53.003Z,5.50
2022-12-13T23:12:39.522Z,5.70
2022-12-13T23:15:08.622Z,5.90
2022-12-13T23:17:37.201Z,5.80
2022-12-13T23:20:06.015Z,5.80
2022-12-13T23:22:34.462Z,6.00
2022-12-13T23:25:02.932Z,5.90
2022-12-13T23:27:31.427Z,5.80
2022-12-13T23:29:59.842Z,6.00
2022-12-13T23:32:28.247Z,5.50
2022-12-13T23:34:56.707Z,5.00
2022-12-13T23:37:25.361Z,5.30
2022-12-13T23:39:53.764Z,5.30
2022-12-13T23:42:22.271Z,5.60
2022-12-13T23:44:50.672Z,5.60
2022-12-13T23:47:19.052Z,5.40
2022-12-13T23:49:48.299Z,5.40
2022-12-13T23:52:16.924Z,5.70
2022-12-13T23:54:45.310Z,5.40
2022-12-13T23:57:13.671Z,5.40
2022-12-13T23:59:42.312Z,5.20
